Latest Weather Observations for Ivanhoe Airport

IDN60801

Issued at 5:05 pm EDT Wednesday 22 October 2014 (issued every 30 minutes, with the page automatically refreshed every 10 minutes)

About weather observations | Map of weather stations | Latest weather observations for NSW | Other Formats
Station Details ID: 049000 Name: IVANHOE AERODROME AWS Lat: -32.88 Lon: 144.31 Height: 100.0 m
Data from the previous 72 hours. | See also: Recent months at Ivanhoe Airport
Date/Time
EDT
Temp
°C
App
Temp
°C
Dew
Point
Rel
Hum
%
Delta-T
°C
Wind Press
QNH
hPa
Press
MSL
hPa
Rain
since 9 am
mm
Dir
 
Spd
km/h
Gust
km/h
Spd
kts
Gust
kts
22/05:00pm 35.6 31.0 -0.7 10 17.9 NNW 13 19 7 10 1014.2 1014.0 0.0
22/04:30pm 35.9 30.8 0.9 11 17.7 N 17 24 9 13 1014.5 1014.3 0.0
22/04:00pm 34.7 29.1 1.1 12 16.9 NNW 20 28 11 15 1014.9 1014.7 0.0
22/03:30pm 33.7 26.2 3.5 15 15.7 WNW 32 48 17 26 1015.2 1015.0 0.0
22/03:02pm 33.6 26.1 4.3 16 15.4 WNW 33 54 18 29 1015.4 1015.2 0.0
22/03:00pm 33.8 26.1 3.6 15 15.7 W 33 44 18 24 1015.5 1015.3 0.0
22/02:30pm 35.4 28.7 1.7 12 17.2 W 26 37 14 20 1015.6 1015.4 0.0
22/02:00pm 37.2 30.4 0.5 10 18.6 W 26 41 14 22 1015.7 1015.5 0.0
22/01:30pm 36.3 31.3 3.5 13 17.3 NW 19 32 10 17 1016.2 1016.0 0.0
22/01:00pm 36.3 31.7 3.5 13 17.3 NW 17 30 9 16 1016.6 1016.3 0.0
22/12:30pm 34.5 30.3 5.9 17 15.5 N 17 28 9 15 1017.2 1016.9 0.0
22/12:00pm 33.1 29.2 7.1 20 14.3 N 17 26 9 14 1017.5 1017.2 0.0
22/11:30am 33.0 27.9 7.8 21 14.0 N 24 32 13 17 1017.7 1017.4 0.0
22/11:00am 32.0 26.3 8.3 23 13.2 N 28 41 15 22 1018.0 1017.7 0.0
22/10:30am 30.4 24.5 7.6 24 12.5 N 28 35 15 19 1018.2 1017.9 0.0
22/10:00am 29.7 23.3 8.7 27 11.6 NNE 32 41 17 22 1018.4 1018.1 0.0
22/09:30am 27.9 22.3 8.7 30 10.6 NNE 28 37 15 20 1018.5 1018.2 0.0
22/09:00am 26.5 20.9 8.9 33 9.6 NNE 28 39 15 21 1018.6 1018.3 0.0
22/08:30am 25.3 20.6 9.2 36 8.8 NNE 24 32 13 17 1018.8 1018.5 0.0
22/08:00am 25.1 20.3 9.0 36 8.7 NNE 24 35 13 19 1018.9 1018.6 0.0
22/07:30am 23.6 19.6 9.2 40 7.8 NNE 20 28 11 15 1018.7 1018.4 0.0
22/07:00am 23.4 19.1 9.4 41 7.6 NNE 22 30 12 16 1018.3 1018.0 0.0
22/06:30am 23.7 19.4 9.3 40 7.8 NE 22 28 12 15 1018.1 1017.8 0.0
22/06:00am 24.2 19.9 9.4 39 8.1 NE 22 28 12 15 1017.9 1017.6 0.0
22/05:30am 24.4 20.4 9.2 38 8.3 NE 20 32 11 17 1017.6 1017.3 0.0
22/05:00am 24.4 20.6 9.2 38 8.3 NE 19 26 10 14 1017.4 1017.1 0.0
22/04:30am 24.5 21.4 8.9 37 8.5 NE 15 20 8 11 1017.6 1017.3 0.0
22/04:00am 24.9 21.4 8.8 36 8.7 NE 17 24 9 13 1017.7 1017.4 0.0
22/03:30am 25.7 21.6 8.7 34 9.2 NE 20 24 11 13 1017.8 1017.5 0.0
22/03:00am 26.4 22.3 8.8 33 9.6 NE 20 30 11 16 1018.0 1017.7 0.0
22/02:30am 26.8 22.7 8.7 32 9.9 NE 20 26 11 14 1018.1 1017.8 0.0
22/02:00am 27.0 22.8 8.4 31 10.1 ENE 20 26 11 14 1018.3 1018.0 0.0
22/01:30am 26.7 22.7 8.2 31 10.0 ENE 19 24 10 13 1018.6 1018.3 0.0
22/01:00am 26.6 22.8 7.6 30 10.2 ENE 17 22 9 12 1018.9 1018.6 0.0
22/12:30am 26.8 22.6 7.3 29 10.4 ENE 19 24 10 13 1019.2 1018.9 0.0
22/12:00am 27.3 22.7 6.7 27 10.9 E 20 24 11 13 1019.5 1019.2 0.0
 
Date/Time
EDT
Temp
°C
App
Temp
°C
Dew
Point
Rel
Hum
%
Delta-T
°C
Wind Press
QNH
hPa
Press
MSL
hPa
Rain
since 9 am
mm
Dir
 
Spd
km/h
Gust
km/h
Spd
kts
Gust
kts
21/11:30pm 27.8 22.7 6.0 25 11.4 E 22 28 12 15 1019.5 1019.2 0.0
21/11:00pm 28.4 23.7 5.9 24 11.8 E 20 30 11 16 1019.6 1019.3 0.0
21/10:30pm 29.0 24.1 5.1 22 12.4 E 20 28 11 15 1019.6 1019.3 0.0
21/10:00pm 29.9 24.3 5.2 21 12.9 E 24 32 13 17 1019.4 1019.1 0.0
21/09:30pm 30.2 25.1 4.0 19 13.5 ESE 20 28 11 15 1019.3 1019.0 0.0
21/09:00pm 29.0 25.2 1.5 17 13.4 ESE 11 13 6 7 1018.9 1018.6 0.0
21/08:30pm 29.7 26.2 1.2 16 13.9 ESE 9 13 5 7 1018.8 1018.5 0.0
21/08:00pm 31.1 27.6 1.4 15 14.7 SE 9 11 5 6 1018.6 1018.3 0.0
21/07:30pm 33.0 30.0 0.9 13 15.9 S 6 9 3 5 1018.3 1018.0 0.0
21/07:00pm 34.8 31.3 1.2 12 16.9 SSE 9 15 5 8 1018.1 1017.8 0.0
21/06:30pm 35.3 31.5 1.6 12 17.2 SSE 11 17 6 9 1018.0 1017.7 0.0
21/06:00pm 36.1 33.3 2.2 12 17.5 SSW 6 13 3 7 1018.0 1017.7 0.0
21/05:30pm 35.1 30.1 1.5 12 17.1 SE 17 22 9 12 1018.1 1017.8 0.0
21/05:00pm 36.2 33.4 2.3 12 17.5 SE 6 13 3 7 1018.0 1017.7 0.0
21/04:30pm 36.0 33.8 3.3 13 17.2 NNE 4 11 2 6 1018.2 1017.9 0.0
21/04:00pm 36.7 33.8 2.7 12 17.7 NE 7 19 4 10 1018.4 1018.1 0.0
21/03:30pm 35.7 33.6 1.9 12 17.4 SSW 2 13 1 7 1018.9 1018.6 0.0
21/03:00pm 36.1 33.2 4.4 14 16.9 WSW 9 13 5 7 1019.4 1019.1 0.0
21/02:30pm 35.0 32.1 4.5 15 16.3 NNW 9 17 5 9 1020.0 1019.7 0.0
21/02:00pm 34.7 32.3 6.9 18 15.3 NNE 9 15 5 8 1020.4 1020.2 0.0
21/01:30pm 33.8 32.1 7.7 20 14.5 E 6 19 3 10 1020.9 1020.7 0.0
21/01:00pm 32.7 30.0 7.5 21 13.9 N 11 19 6 10 1021.5 1021.3 0.0
21/12:30pm 31.6 28.3 7.9 23 13.1 N 15 24 8 13 1021.9 1021.7 0.0
21/12:00pm 30.7 27.9 8.4 25 12.3 NNE 13 20 7 11 1022.1 1021.9 0.0
21/11:30am 30.1 26.5 8.5 26 12.0 NE 17 26 9 14 1022.4 1022.2 0.0
21/11:00am 29.3 25.5 8.9 28 11.3 NE 19 26 10 14 1022.6 1022.4 0.0
21/10:30am 27.9 23.9 9.2 31 10.4 NE 20 26 11 14 1022.8 1022.6 0.0
21/10:00am 26.5 22.5 8.9 33 9.6 NE 20 28 11 15 1023.0 1022.8 0.0
21/09:30am 25.2 20.5 9.1 36 8.8 NE 24 30 13 16 1022.9 1022.7 0.0
21/09:00am 24.2 19.0 9.0 38 8.2 NE 26 33 14 18 1022.9 1022.7 0.0
21/08:30am 22.9 17.4 9.0 41 7.5 NE 28 33 15 18 1022.7 1022.5 0.0
21/08:00am 21.2 17.2 9.1 46 6.4 NE 20 28 11 15 1022.4 1022.2 0.0
21/07:30am 18.8 15.2 8.2 50 5.5 ENE 17 20 9 11 1022.2 1022.0 0.0
21/07:00am 17.7 14.1 8.3 54 4.8 ENE 17 20 9 11 1022.0 1021.8 0.0
21/06:30am 18.1 14.6 8.9 55 4.8 E 17 19 9 10 1021.8 1021.6 0.0
21/06:00am 18.3 15.2 8.8 54 4.9 E 15 19 8 10 1021.6 1021.4 0.0
21/05:30am 18.4 15.1 8.1 51 5.3 ESE 15 17 8 9 1021.4 1021.2 0.0
21/05:00am 18.9 15.5 7.7 48 5.7 E 15 17 8 9 1021.3 1021.1 0.0
21/04:30am 18.4 14.9 5.6 43 6.3 E 13 15 7 8 1021.3 1021.1 0.0
21/04:00am 19.0 15.3 4.7 39 6.9 ESE 13 15 7 8 1021.1 1020.9 0.0
21/03:30am 20.2 16.5 4.7 36 7.6 E 13 17 7 9 1021.2 1021.0 0.0
21/03:00am 20.3 16.6 4.4 35 7.7 ESE 13 15 7 8 1021.4 1021.2 0.0
21/02:30am 21.1 17.3 3.8 32 8.3 SE 13 19 7 10 1021.5 1021.3 0.0
21/02:00am 21.8 17.6 3.9 31 8.7 SE 15 20 8 11 1021.7 1021.5 0.0
21/01:30am 22.4 18.1 3.5 29 9.2 SE 15 20 8 11 1021.9 1021.7 0.0
21/01:00am 23.1 18.3 2.6 26 9.8 SE 17 20 9 11 1022.0 1021.8 0.0
21/12:30am 23.7 19.2 2.0 24 10.3 SSE 15 22 8 12 1022.1 1021.9 0.0
21/12:00am 24.2 19.5 1.2 22 10.8 SSE 15 19 8 10 1022.0 1021.8 0.0
 
Date/Time
EDT
Temp
°C
App
Temp
°C
Dew
Point
Rel
Hum
%
Delta-T
°C
Wind Press
QNH
hPa
Press
MSL
hPa
Rain
since 9 am
mm
Dir
 
Spd
km/h
Gust
km/h
Spd
kts
Gust
kts
20/11:30pm 25.2 19.8 1.3 21 11.3 SE 19 24 10 13 1022.0 1021.8 0.0
20/11:00pm 25.7 20.7 1.1 20 11.6 SSE 17 22 9 12 1021.8 1021.6 0.0
20/10:30pm 26.1 21.0 0.7 19 12.0 SSE 17 22 9 12 1021.8 1021.6 0.0
20/10:00pm 26.2 21.4 0.0 18 12.2 SSE 15 19 8 10 1021.7 1021.5 0.0
20/09:30pm 27.9 22.8 0.6 17 13.0 SSE 17 22 9 12 1021.6 1021.4 0.0
20/09:00pm 28.9 23.8 0.6 16 13.6 SSE 17 24 9 13 1021.2 1021.0 0.0
20/08:30pm 28.9 24.3 -1.2 14 14.0 S 13 15 7 8 1020.8 1020.6 0.0
20/08:00pm 30.3 25.3 -1.2 13 14.8 SSE 15 20 8 11 1020.4 1020.2 0.0
20/07:30pm 31.5 26.9 -1.3 12 15.5 S 13 17 7 9 1020.0 1019.7 0.0
20/07:00pm 33.1 28.5 -1.3 11 16.4 SSE 13 22 7 12 1019.8 1019.5 0.0
20/06:30pm 33.7 27.8 -2.1 10 17.0 SE 19 24 10 13 1019.7 1019.4 0.0
20/06:00pm 34.7 30.8 -1.4 10 17.4 SE 9 15 5 8 1019.8 1019.5 0.0
20/05:30pm 35.1 31.1 -2.5 9 17.9 S 9 19 5 10 1019.7 1019.4 0.0
20/05:00pm 35.1 31.4 -2.5 9 17.9 S 7 15 4 8 1019.8 1019.5 0.0
20/04:30pm 34.9 31.0 -1.2 10 17.5 SW 9 24 5 13 1019.9 1019.6 0.0
20/04:00pm 35.1 30.5 -1.1 10 17.6 SE 13 24 7 13 1020.1 1019.9 0.0
20/03:30pm 34.9 31.2 -2.6 9 17.8 WNW 7 11 4 6 1020.5 1020.3 0.0
20/03:00pm 34.2 30.3 -1.7 10 17.2 NNE 9 17 5 9 1020.8 1020.6 0.0
20/02:30pm 34.3 30.8 -1.7 10 17.3 S 7 17 4 9 1021.2 1021.0 0.0
20/02:00pm 34.2 29.9 -1.7 10 17.2 W 11 17 6 9 1021.6 1021.4 0.0
20/01:30pm 33.6 29.2 -2.2 10 17.0 SW 11 17 6 9 1021.9 1021.7 0.0
20/01:00pm 33.4 29.3 0.1 12 16.3 S 11 17 6 9 1022.4 1022.2 0.0
20/12:30pm 32.6 29.4 -0.5 12 16.0 WSW 6 13 3 7 1022.8 1022.6 0.0
20/12:00pm 31.2 27.7 1.5 15 14.7 SW 9 13 5 7 1023.3 1023.1 0.0
20/11:30am 30.6 27.7 2.8 17 14.0 SW 7 15 4 8 1023.7 1023.5 0.0
20/11:00am 28.6 25.6 2.0 18 13.0 S 7 13 4 7 1023.9 1023.7 0.0
20/10:30am 26.9 23.0 1.3 19 12.3 SSE 11 15 6 8 1023.9 1023.7 0.0
20/10:00am 24.9 20.9 0.4 20 11.3 S 11 15 6 8 1023.9 1023.7 0.0
20/09:30am 23.5 18.9 -0.7 20 10.9 S 13 17 7 9 1023.8 1023.6 0.0
20/09:00am 22.3 17.7 -1.1 21 10.3 S 13 15 7 8 1023.5 1023.3 0.8
20/08:30am 21.0 16.3 -2.1 21 9.9 S 13 20 7 11 1023.3 1023.1 0.8
20/08:00am 20.7 16.5 -1.2 23 9.5 S 11 15 6 8 1022.9 1022.7 0.8
20/07:30am 19.7 16.0 -2.6 22 9.4 SSE 7 9 4 5 1022.3 1022.1 0.8
20/07:00am 20.8 16.8 -2.3 21 9.8 SSE 9 11 5 6 1022.0 1021.8 0.8
20/06:30am 19.8 15.4 -2.5 22 9.4 S 11 15 6 8 1021.6 1021.4 0.8
20/06:00am 19.9 15.5 -2.4 22 9.4 SSW 11 17 6 9 1021.3 1021.1 0.8
20/05:30am 20.0 15.3 -1.7 23 9.3 NNE 13 13 7 7 1020.6 1020.4 0.8
20/05:00am 19.9 15.2 -1.8 23 9.2 NNE 13 15 7 8 1020.4 1020.2 0.8
20/04:30am 19.8 15.1 -1.9 23 9.3 NNE 13 13 7 7 1020.3 1020.1 0.8
20/04:00am 21.0 16.3 -2.1 21 9.9 NNE 13 13 7 7 1020.3 1020.1 0.8
20/03:30am 22.0 17.3 -2.0 20 10.4 NNE 13 13 7 7 1020.4 1020.2 0.8
20/03:00am 21.9 17.2 -2.0 20 10.3 NNE 13 13 7 7 1020.6 1020.4 0.8
20/02:30am 20.6 16.2 -2.5 21 9.8 NE 11 13 6 7 1020.6 1020.4 0.8
20/02:00am 21.3 16.6 -1.9 21 10.0 NE 13 13 7 7 1020.9 1020.7 0.8
20/01:30am 21.1 16.4 -2.0 21 9.9 NE 13 13 7 7 1021.0 1020.8 0.8
20/01:00am 21.3 17.0 -1.9 21 10.0 NE 11 11 6 6 1021.4 1021.2 0.8
20/12:30am 20.2 15.8 -2.8 21 9.7 ENE 11 11 6 6 1021.5 1021.3 0.8
20/12:00am 23.2 20.9 -2.4 18 11.1 CALM 0 0 0 0 1021.6 1021.4 0.8
 
Date/Time
EDT
Temp
°C
App
Temp
°C
Dew
Point
Rel
Hum
%
Delta-T
°C
Wind Press
QNH
hPa
Press
MSL
hPa
Rain
since 9 am
mm
Dir
 
Spd
km/h
Gust
km/h
Spd
kts
Gust
kts
19/11:30pm 24.4 21.0 -2.2 17 11.7 WSW 6 6 3 3 1021.8 1021.6 0.8
19/11:00pm 24.7 21.3 -2.0 17 11.8 WSW 6 7 3 4 1021.8 1021.6 0.8
19/10:30pm 24.2 20.6 -2.4 17 11.7 WNW 7 9 4 5 1021.8 1021.6 0.8
19/10:00pm 26.0 22.5 -1.7 16 12.5 NW 7 7 4 4 1021.7 1021.5 0.8
19/09:30pm 26.4 22.8 -2.3 15 12.9 NW 7 9 4 5 1021.5 1021.3 0.8
19/09:00pm 27.0 23.4 -1.8 15 13.0 NW 7 7 4 4 1021.3 1021.1 0.8
19/08:30pm 27.3 23.8 -2.5 14 13.4 NW 6 7 3 4 1020.9 1020.7 0.8
19/08:00pm 28.5 25.0 -2.6 13 14.0 NW 6 7 3 4 1020.5 1020.3 0.8
19/07:30pm 30.1 26.3 -3.6 11 15.2 NW 7 9 4 5 1020.2 1020.0 0.8
19/07:00pm 32.0 27.9 -3.4 10 16.2 NW 9 13 5 7 1020.0 1019.7 0.8
19/06:30pm 33.1 28.9 -4.0 9 17.0 WNW 9 17 5 9 1019.7 1019.4 0.8
19/06:00pm 33.6 28.7 -3.6 9 17.2 WNW 13 20 7 11 1019.6 1019.3 0.8
19/05:30pm 33.2 29.6 -3.9 9 17.0 NW 6 13 3 7 1019.6 1019.3 0.8

Other Formats:

Comma delimited format used in spreadsheet applications
http://www.bom.gov.au/fwo/IDN60801/IDN60801.95697.axf

JavaScript Object Notation format (JSON) in row-major order
http://www.bom.gov.au/fwo/IDN60801/IDN60801.95697.json